createdAt,value
2018-05-10T00:00:33.301Z,999.7
2018-05-10T00:01:35.353Z,999.7
2018-05-10T00:02:37.404Z,999.6
2018-05-10T00:03:39.434Z,999.6
2018-05-10T00:04:41.779Z,999.6
2018-05-10T00:05:43.829Z,999.6
2018-05-10T00:06:45.872Z,999.6
2018-05-10T00:07:48.323Z,999.6
2018-05-10T00:08:51.205Z,999.6
2018-05-10T00:09:53.250Z,999.6
2018-05-10T00:10:55.298Z,999.6
2018-05-10T00:11:57.339Z,999.6
2018-05-10T00:12:59.400Z,999.6
2018-05-10T00:14:01.447Z,999.6
2018-05-10T00:15:03.866Z,999.7
2018-05-10T00:16:06.585Z,999.7
2018-05-10T00:17:09.034Z,999.6
2018-05-10T00:18:11.071Z,999.6
2018-05-10T00:19:13.115Z,999.7
2018-05-10T00:20:15.175Z,999.6
2018-05-10T00:21:17.228Z,999.6
2018-05-10T00:22:19.260Z,999.6
2018-05-10T00:23:21.309Z,999.6
2018-05-10T00:24:23.433Z,999.6
2018-05-10T00:25:25.404Z,999.6
2018-05-10T00:26:27.464Z,999.6
2018-05-10T00:27:29.518Z,999.5
2018-05-10T00:28:31.558Z,999.6
2018-05-10T00:29:33.612Z,999.5
2018-05-10T00:30:35.657Z,999.6
2018-05-10T00:31:37.983Z,999.6
2018-05-10T00:32:40.028Z,999.6
2018-05-10T00:33:42.456Z,999.5
2018-05-10T00:34:44.502Z,999.5
2018-05-10T00:35:46.552Z,999.6
2018-05-10T00:36:48.593Z,999.5
2018-05-10T00:37:50.645Z,999.5
2018-05-10T00:38:52.973Z,999.5
2018-05-10T00:39:55.029Z,999.5
2018-05-10T00:40:57.085Z,999.5
2018-05-10T00:41:59.136Z,999.5
2018-05-10T00:43:01.180Z,999.5
2018-05-10T00:44:03.217Z,999.5
2018-05-10T00:45:05.266Z,999.5
2018-05-10T00:46:07.320Z,999.5
2018-05-10T00:47:09.356Z,999.5
2018-05-10T00:48:11.411Z,999.5
2018-05-10T00:49:13.448Z,999.5
2018-05-10T00:50:15.488Z,999.4
2018-05-10T00:51:17.915Z,999.5
2018-05-10T00:52:19.956Z,999.4
2018-05-10T00:53:22.321Z,999.4
2018-05-10T00:54:24.372Z,999.4
2018-05-10T00:55:26.414Z,999.4
2018-05-10T00:56:28.468Z,999.4
2018-05-10T00:57:30.893Z,999.4
2018-05-10T00:58:32.935Z,999.5
2018-05-10T00:59:35.085Z,999.4
2018-05-10T01:00:37.127Z,999.4
2018-05-10T01:01:39.170Z,999.4
2018-05-10T01:02:41.498Z,999.4
2018-05-10T01:03:43.834Z,999.4
2018-05-10T01:04:45.906Z,999.5
2018-05-10T01:05:48.346Z,999.4
2018-05-10T01:06:50.393Z,999.4
2018-05-10T01:07:52.716Z,999.4
2018-05-10T01:08:54.762Z,999.5
2018-05-10T01:09:56.822Z,999.4
2018-05-10T01:10:59.244Z,999.4
2018-05-10T01:12:01.284Z,999.4
2018-05-10T01:13:03.324Z,999.4
2018-05-10T01:14:05.821Z,999.4
2018-05-10T01:15:07.867Z,999.4
2018-05-10T01:16:09.911Z,999.4
2018-05-10T01:17:11.964Z,999.3
2018-05-10T01:18:14.010Z,999.3
2018-05-10T01:19:16.322Z,999.3
2018-05-10T01:20:18.368Z,999.3
2018-05-10T01:21:21.102Z,999.2
2018-05-10T01:22:23.146Z,999.3
2018-05-10T01:23:25.470Z,999.3
2018-05-10T01:24:27.526Z,999.2
2018-05-10T01:25:29.579Z,999.2
2018-05-10T01:26:31.624Z,999.2
2018-05-10T01:27:33.669Z,999.2
2018-05-10T01:28:36.105Z,999.2
2018-05-10T01:29:38.144Z,999.1
2018-05-10T01:30:40.185Z,999.1
2018-05-10T01:31:42.227Z,999.2
2018-05-10T01:32:44.275Z,999.2
2018-05-10T01:33:46.707Z,999.2
2018-05-10T01:34:48.743Z,999.1
2018-05-10T01:35:51.549Z,999.1
2018-05-10T01:36:53.875Z,999.1
2018-05-10T01:37:56.208Z,999.1
2018-05-10T01:38:58.252Z,999.1
2018-05-10T01:40:00.629Z,999.1
2018-05-10T01:41:02.697Z,999.1
2018-05-10T01:42:05.133Z,999.1
2018-05-10T01:43:07.504Z,999.1
2018-05-10T01:44:09.544Z,999.1
2018-05-10T01:45:11.909Z,999
2018-05-10T01:46:13.954Z,999
2018-05-10T01:47:15.995Z,999
2018-05-10T01:48:18.330Z,999
2018-05-10T01:49:20.683Z,999
2018-05-10T01:50:23.110Z,999
2018-05-10T01:51:25.167Z,999
2018-05-10T01:52:27.206Z,999
2018-05-10T01:53:29.263Z,999
2018-05-10T01:54:31.588Z,999
2018-05-10T01:55:33.637Z,999
2018-05-10T01:56:36.073Z,999
2018-05-10T01:57:38.113Z,999
2018-05-10T01:58:40.160Z,999
2018-05-10T01:59:42.197Z,999
2018-05-10T02:00:44.229Z,999
2018-05-10T02:01:46.285Z,999
2018-05-10T02:02:48.320Z,999
2018-05-10T02:03:50.367Z,999
2018-05-10T02:04:52.415Z,999
2018-05-10T02:05:54.464Z,999
2018-05-10T02:06:56.491Z,999
2018-05-10T02:07:58.830Z,998.9
2018-05-10T02:09:00.877Z,998.9
2018-05-10T02:10:02.927Z,998.9
2018-05-10T02:11:04.970Z,998.9
2018-05-10T02:12:07.006Z,998.9
2018-05-10T02:13:09.050Z,998.9
2018-05-10T02:14:11.090Z,998.9
2018-05-10T02:15:13.143Z,998.9
2018-05-10T02:16:15.190Z,998.9
2018-05-10T02:17:17.225Z,998.9
2018-05-10T02:18:19.276Z,998.9
2018-05-10T02:19:21.318Z,998.9
2018-05-10T02:20:23.360Z,998.8
2018-05-10T02:21:25.426Z,998.9
2018-05-10T02:22:27.472Z,998.8
2018-05-10T02:23:29.514Z,998.8
2018-05-10T02:24:31.563Z,998.8
2018-05-10T02:25:34.182Z,998.8
2018-05-10T02:26:36.519Z,998.8
2018-05-10T02:27:38.556Z,998.8
2018-05-10T02:28:40.891Z,998.8
2018-05-10T02:29:43.003Z,998.8
2018-05-10T02:30:45.672Z,998.8
2018-05-10T02:31:47.707Z,998.8
2018-05-10T02:32:49.758Z,998.8
2018-05-10T02:33:51.811Z,998.8
2018-05-10T02:34:54.141Z,998.8
2018-05-10T02:35:56.479Z,998.8
2018-05-10T02:36:58.815Z,998.8
2018-05-10T02:38:01.140Z,998.7
2018-05-10T02:39:03.192Z,998.8
2018-05-10T02:40:05.233Z,998.8
2018-05-10T02:41:07.672Z,998.8
2018-05-10T02:42:09.709Z,998.8
2018-05-10T02:43:12.059Z,998.8
2018-05-10T02:44:14.099Z,998.8
2018-05-10T02:45:16.447Z,998.8
2018-05-10T02:46:18.510Z,998.8
2018-05-10T02:47:20.937Z,998.9
2018-05-10T02:48:23.374Z,998.8
2018-05-10T02:49:25.864Z,998.8
2018-05-10T02:50:27.873Z,998.8
2018-05-10T02:51:29.932Z,998.8
2018-05-10T02:52:31.976Z,998.8
2018-05-10T02:53:34.024Z,998.7
2018-05-10T02:54:36.069Z,998.8
2018-05-10T02:55:38.505Z,998.8
2018-05-10T02:56:40.959Z,998.8
2018-05-10T02:57:43.002Z,998.8
2018-05-10T02:58:45.332Z,998.8
2018-05-10T02:59:47.384Z,998.8
2018-05-10T03:00:49.719Z,998.8
2018-05-10T03:01:52.434Z,998.8
2018-05-10T03:02:54.487Z,998.8
2018-05-10T03:03:56.521Z,998.8
2018-05-10T03:04:58.566Z,998.8
2018-05-10T03:06:01.007Z,998.8
2018-05-10T03:07:03.057Z,998.8
2018-05-10T03:08:05.084Z,998.8
2018-05-10T03:09:07.439Z,998.8
2018-05-10T03:10:09.772Z,998.8
2018-05-10T03:11:11.821Z,998.8
2018-05-10T03:12:13.866Z,998.8
2018-05-10T03:13:16.228Z,998.8
2018-05-10T03:14:18.278Z,998.8
2018-05-10T03:15:20.309Z,998.8
2018-05-10T03:16:22.349Z,998.8
2018-05-10T03:17:24.403Z,998.8
2018-05-10T03:18:26.727Z,998.8
2018-05-10T03:19:28.783Z,998.8
2018-05-10T03:20:30.820Z,998.8
2018-05-10T03:21:32.870Z,998.8
2018-05-10T03:22:34.902Z,998.9
2018-05-10T03:23:36.949Z,998.8
2018-05-10T03:24:38.993Z,998.8
2018-05-10T03:25:41.424Z,998.8
2018-05-10T03:26:43.760Z,998.8
2018-05-10T03:27:45.799Z,998.8
2018-05-10T03:28:47.845Z,998.8
2018-05-10T03:29:50.197Z,998.8
2018-05-10T03:30:52.558Z,998.9
2018-05-10T03:31:54.898Z,998.8
2018-05-10T03:32:57.229Z,998.8
2018-05-10T03:33:59.264Z,998.8
2018-05-10T03:35:01.313Z,998.8
2018-05-10T03:36:03.354Z,998.9
2018-05-10T03:37:05.406Z,998.8
2018-05-10T03:38:07.730Z,998.8
2018-05-10T03:39:09.781Z,998.9
2018-05-10T03:40:11.827Z,998.9
2018-05-10T03:41:13.857Z,998.8
2018-05-10T03:42:15.917Z,998.8
2018-05-10T03:43:17.972Z,998.8
2018-05-10T03:44:20.017Z,998.8
2018-05-10T03:45:22.344Z,998.8
2018-05-10T03:46:24.672Z,998.8
2018-05-10T03:47:27.196Z,998.8
2018-05-10T03:48:29.229Z,998.8
2018-05-10T03:49:31.275Z,998.8
2018-05-10T03:50:33.892Z,998.8
2018-05-10T03:51:35.936Z,998.8
2018-05-10T03:52:37.985Z,998.8
2018-05-10T03:53:40.031Z,998.9
2018-05-10T03:54:42.070Z,998.9
2018-05-10T03:55:44.134Z,998.9
2018-05-10T03:56:46.164Z,998.9
2018-05-10T03:57:48.213Z,999
2018-05-10T03:58:50.254Z,999
2018-05-10T03:59:52.297Z,999
2018-05-10T04:00:54.338Z,998.9
2018-05-10T04:01:56.378Z,998.9
2018-05-10T04:02:58.698Z,998.9
2018-05-10T04:04:00.744Z,998.9
2018-05-10T04:05:02.785Z,998.9
2018-05-10T04:06:04.917Z,998.9
2018-05-10T04:07:07.995Z,998.9
2018-05-10T04:08:10.038Z,998.9
2018-05-10T04:09:12.074Z,998.9
2018-05-10T04:10:14.130Z,998.9
2018-05-10T04:11:16.486Z,998.8
2018-05-10T04:12:18.524Z,998.8
2018-05-10T04:13:20.860Z,998.8
2018-05-10T04:14:23.191Z,998.8
2018-05-10T04:15:25.225Z,998.8
2018-05-10T04:16:27.263Z,998.9
2018-05-10T04:17:29.309Z,998.9
2018-05-10T04:18:31.355Z,998.9
2018-05-10T04:19:33.692Z,998.9
2018-05-10T04:20:35.737Z,998.9
2018-05-10T04:21:38.054Z,998.9
2018-05-10T04:22:40.698Z,998.9
2018-05-10T04:23:43.015Z,998.9
2018-05-10T04:24:45.060Z,998.9
2018-05-10T04:25:47.112Z,999
2018-05-10T04:26:49.158Z,999
2018-05-10T04:27:51.279Z,999
2018-05-10T04:28:53.238Z,999
2018-05-10T04:29:55.281Z,998.9
2018-05-10T04:30:57.330Z,999
2018-05-10T04:31:59.371Z,999
2018-05-10T04:33:01.426Z,999
2018-05-10T04:34:03.474Z,999
2018-05-10T04:35:05.823Z,998.9
2018-05-10T04:36:07.851Z,998.8
2018-05-10T04:37:09.892Z,998.8
2018-05-10T04:38:12.329Z,998.8
2018-05-10T04:39:14.375Z,998.8
2018-05-10T04:40:16.425Z,998.9
2018-05-10T04:41:18.462Z,998.9
2018-05-10T04:42:20.918Z,998.9
2018-05-10T04:43:23.222Z,998.9
2018-05-10T04:44:25.563Z,998.9
2018-05-10T04:45:27.620Z,998.8
2018-05-10T04:46:29.659Z,998.8
2018-05-10T04:47:31.691Z,998.9
2018-05-10T04:48:33.734Z,998.9
2018-05-10T04:49:36.083Z,998.9
2018-05-10T04:50:38.414Z,998.9
2018-05-10T04:51:40.450Z,998.9
2018-05-10T04:52:42.485Z,998.9
2018-05-10T04:53:44.532Z,998.9
2018-05-10T04:54:46.620Z,998.9
2018-05-10T04:55:48.950Z,998.9
2018-05-10T04:56:50.980Z,998.9
2018-05-10T04:57:53.024Z,998.9
2018-05-10T04:58:55.066Z,998.9
2018-05-10T04:59:57.101Z,998.9
2018-05-10T05:00:59.149Z,998.9
2018-05-10T05:02:01.177Z,998.9
2018-05-10T05:03:03.514Z,998.9
2018-05-10T05:04:05.561Z,998.9
2018-05-10T05:05:07.600Z,998.9
2018-05-10T05:06:09.651Z,999
2018-05-10T05:07:11.694Z,998.9
2018-05-10T05:08:13.737Z,999
2018-05-10T05:09:16.162Z,999
2018-05-10T05:10:18.198Z,999
2018-05-10T05:11:20.250Z,999
2018-05-10T05:12:22.287Z,999
2018-05-10T05:13:24.332Z,998.9
2018-05-10T05:14:26.372Z,999
2018-05-10T05:15:28.414Z,999
2018-05-10T05:16:31.110Z,999
2018-05-10T05:17:33.154Z,999
2018-05-10T05:18:35.202Z,999
2018-05-10T05:19:37.244Z,999
2018-05-10T05:20:39.279Z,999
2018-05-10T05:21:41.321Z,999
2018-05-10T05:22:43.647Z,999
2018-05-10T05:23:45.710Z,999
2018-05-10T05:24:47.721Z,999
2018-05-10T05:25:49.780Z,999
2018-05-10T05:26:52.569Z,999
2018-05-10T05:27:54.556Z,999
2018-05-10T05:28:56.604Z,998.9
2018-05-10T05:29:58.648Z,998.9
2018-05-10T05:31:00.690Z,999
2018-05-10T05:32:03.016Z,998.9
2018-05-10T05:33:05.063Z,998.9
2018-05-10T05:34:07.102Z,999
2018-05-10T05:35:09.545Z,999
2018-05-10T05:36:11.888Z,998.9
2018-05-10T05:37:13.920Z,998.9
2018-05-10T05:38:16.257Z,998.9
2018-05-10T05:39:18.307Z,998.9
2018-05-10T05:40:20.631Z,998.9
2018-05-10T05:41:23.136Z,998.9
2018-05-10T05:42:25.090Z,998.9
2018-05-10T05:43:27.182Z,998.9
2018-05-10T05:44:29.682Z,998.9
2018-05-10T05:45:31.715Z,998.9
2018-05-10T05:46:33.760Z,998.9
2018-05-10T05:47:35.794Z,998.9
2018-05-10T05:48:37.839Z,998.9
2018-05-10T05:49:39.874Z,998.9
2018-05-10T05:50:41.923Z,999
2018-05-10T05:51:43.967Z,999
2018-05-10T05:52:46.016Z,999
2018-05-10T05:53:48.732Z,999
2018-05-10T05:54:50.779Z,998.9
2018-05-10T05:55:52.814Z,999
2018-05-10T05:56:54.856Z,999
2018-05-10T05:57:56.893Z,999
2018-05-10T05:58:58.946Z,999
2018-05-10T06:00:00.980Z,999
2018-05-10T06:01:03.039Z,999
2018-05-10T06:02:05.067Z,999
2018-05-10T06:03:07.131Z,999
2018-05-10T06:04:09.169Z,999.1
2018-05-10T06:05:11.511Z,999
2018-05-10T06:06:13.567Z,999.1
2018-05-10T06:07:16.280Z,999.1
2018-05-10T06:08:18.306Z,999.1
2018-05-10T06:09:20.357Z,999.1
2018-05-10T06:10:22.393Z,999.1
2018-05-10T06:11:24.433Z,999.1
2018-05-10T06:12:26.476Z,999.1
2018-05-10T06:13:28.520Z,999.1
2018-05-10T06:14:30.566Z,999.2
2018-05-10T06:15:32.969Z,999.1
2018-05-10T06:16:34.962Z,999.1
2018-05-10T06:17:37.306Z,999
2018-05-10T06:18:39.351Z,999.1
2018-05-10T06:19:41.392Z,999.1
2018-05-10T06:20:43.729Z,999.1
2018-05-10T06:21:45.777Z,999
2018-05-10T06:22:47.810Z,999
2018-05-10T06:23:49.853Z,999.1
2018-05-10T06:24:52.684Z,999
2018-05-10T06:25:54.666Z,999.1
2018-05-10T06:26:56.995Z,999.1
2018-05-10T06:27:59.916Z,999.1
2018-05-10T06:29:02.242Z,999.1
2018-05-10T06:30:04.583Z,999.1
2018-05-10T06:31:06.628Z,999.1
2018-05-10T06:32:08.680Z,999
2018-05-10T06:33:10.726Z,999.1
2018-05-10T06:34:13.091Z,999.1
2018-05-10T06:35:15.130Z,999.2
2018-05-10T06:36:17.185Z,999.2
2018-05-10T06:37:19.220Z,999.3
2018-05-10T06:38:21.263Z,999.3
2018-05-10T06:39:23.623Z,999.2
2018-05-10T06:40:25.666Z,999.2
2018-05-10T06:41:27.797Z,999.2
2018-05-10T06:42:30.454Z,999.2
2018-05-10T06:43:32.885Z,999.1
2018-05-10T06:44:34.938Z,999.2
2018-05-10T06:45:37.568Z,999.1
2018-05-10T06:46:39.898Z,999
2018-05-10T06:47:42.226Z,999.1
2018-05-10T06:48:44.279Z,999.1
2018-05-10T06:49:46.323Z,999
2018-05-10T06:50:48.356Z,999.1
2018-05-10T06:51:50.404Z,999
2018-05-10T06:52:52.839Z,999
2018-05-10T06:53:54.887Z,999
2018-05-10T06:54:57.606Z,999.1
2018-05-10T06:55:59.643Z,999.1
2018-05-10T06:57:01.699Z,999
2018-05-10T06:58:03.736Z,999.1
2018-05-10T06:59:05.787Z,999.1
2018-05-10T07:00:08.219Z,999.1
2018-05-10T07:01:10.259Z,999.1
2018-05-10T07:02:12.303Z,999.1
2018-05-10T07:03:14.352Z,999.1
2018-05-10T07:04:16.393Z,999.1
2018-05-10T07:05:18.728Z,999.1
2018-05-10T07:06:20.763Z,999.1
2018-05-10T07:07:22.830Z,999.1
2018-05-10T07:08:24.880Z,999.1
2018-05-10T07:09:27.653Z,999.1
2018-05-10T07:10:30.100Z,999.1
2018-05-10T07:11:32.150Z,999
2018-05-10T07:12:34.184Z,999.1
2018-05-10T07:13:36.238Z,999.1
2018-05-10T07:14:38.277Z,999.1
2018-05-10T07:15:40.327Z,999.1
2018-05-10T07:16:42.365Z,999.2
2018-05-10T07:17:44.714Z,999.1
2018-05-10T07:18:47.061Z,999.1
2018-05-10T07:19:49.110Z,999.1
2018-05-10T07:20:51.158Z,999.2
2018-05-10T07:21:53.203Z,999.1
2018-05-10T07:22:55.251Z,999.1
2018-05-10T07:23:57.299Z,999.1
2018-05-10T07:24:59.338Z,999.1
2018-05-10T07:26:01.345Z,999.1
2018-05-10T07:27:03.363Z,999.1
2018-05-10T07:28:05.351Z,999.1
2018-05-10T07:29:07.359Z,999.1
2018-05-10T07:30:09.374Z,999.1
2018-05-10T07:31:11.384Z,999.1
2018-05-10T07:32:13.389Z,999.1
2018-05-10T07:33:15.402Z,999.1
2018-05-10T07:34:17.414Z,999.1
2018-05-10T07:35:19.414Z,999.1
2018-05-10T07:36:21.428Z,999.1
2018-05-10T07:37:23.436Z,999.1
2018-05-10T07:38:25.744Z,999.1
2018-05-10T07:39:28.418Z,999.1
2018-05-10T07:40:30.416Z,999.1
2018-05-10T07:41:32.424Z,999.2
2018-05-10T07:42:34.428Z,999.1
2018-05-10T07:43:36.825Z,999.2
2018-05-10T07:44:38.830Z,999.2
2018-05-10T07:45:41.161Z,999.2
2018-05-10T07:46:43.172Z,999.1
2018-05-10T07:47:45.174Z,999.1
2018-05-10T07:48:47.181Z,999.1
2018-05-10T07:49:49.572Z,999.1
2018-05-10T07:50:51.604Z,999.1
2018-05-10T07:51:53.890Z,999.1
2018-05-10T07:52:55.895Z,999.2
2018-05-10T07:53:58.197Z,999.2
2018-05-10T07:55:00.186Z,999.2
2018-05-10T07:56:02.480Z,999.2
2018-05-10T07:57:04.779Z,999.2
2018-05-10T07:58:06.795Z,999.2
2018-05-10T07:59:08.812Z,999.3
2018-05-10T08:00:11.104Z,999.3
2018-05-10T08:01:13.111Z,999.3
2018-05-10T08:02:15.160Z,999.3
2018-05-10T08:03:17.139Z,999.3
2018-05-10T08:04:19.145Z,999.4
2018-05-10T08:05:21.424Z,999.4
2018-05-10T08:06:23.722Z,999.3
2018-05-10T08:07:25.758Z,999.3
2018-05-10T08:08:27.743Z,999.3
2018-05-10T08:09:29.750Z,999.3
2018-05-10T08:10:31.757Z,999.3
2018-05-10T08:11:33.763Z,999.3
2018-05-10T08:12:36.146Z,999.4
2018-05-10T08:13:38.163Z,999.4
2018-05-10T08:14:40.554Z,999.3
2018-05-10T08:15:42.553Z,999.4
2018-05-10T08:16:44.566Z,999.3
2018-05-10T08:17:46.574Z,999.3
2018-05-10T08:18:48.589Z,999.3
2018-05-10T08:19:50.990Z,999.3
2018-05-10T08:20:53.288Z,999.4
2018-05-10T08:21:55.310Z,999.4
2018-05-10T08:22:57.358Z,999.4
2018-05-10T08:23:59.324Z,999.4
2018-05-10T08:25:01.335Z,999.4
2018-05-10T08:26:03.351Z,999.4
2018-05-10T08:27:05.360Z,999.4
2018-05-10T08:28:07.654Z,999.4
2018-05-10T08:29:09.659Z,999.3
2018-05-10T08:30:11.741Z,999.4
2018-05-10T08:31:14.096Z,999.4
2018-05-10T08:32:16.108Z,999.4
2018-05-10T08:33:18.111Z,999.3
2018-05-10T08:34:20.124Z,999.4
2018-05-10T08:35:22.122Z,999.4
2018-05-10T08:36:24.262Z,999.4
2018-05-10T08:37:26.525Z,999.3
2018-05-10T08:38:28.533Z,999.4
2018-05-10T08:39:30.536Z,999.4
2018-05-10T08:40:32.553Z,999.4
2018-05-10T08:41:34.568Z,999.5
2018-05-10T08:42:36.591Z,999.4
2018-05-10T08:43:38.590Z,999.4
2018-05-10T08:44:40.600Z,999.4
2018-05-10T08:45:42.619Z,999.4
2018-05-10T08:46:44.615Z,999.4
2018-05-10T08:47:46.909Z,999.5
2018-05-10T08:48:48.929Z,999.5
2018-05-10T08:49:51.321Z,999.5
2018-05-10T08:50:53.339Z,999.4
2018-05-10T08:51:56.392Z,999.4
2018-05-10T08:52:59.020Z,999.5
2018-05-10T08:54:01.023Z,999.5
2018-05-10T08:55:03.053Z,999.5
2018-05-10T08:56:05.083Z,999.5
2018-05-10T08:57:07.371Z,999.5
2018-05-10T08:58:09.369Z,999.5
2018-05-10T08:59:11.385Z,999.5
2018-05-10T09:00:13.388Z,999.5
2018-05-10T09:01:15.392Z,999.5
2018-05-10T09:02:17.395Z,999.5
2018-05-10T09:03:19.712Z,999.5
2018-05-10T09:04:21.723Z,999.5
2018-05-10T09:05:23.739Z,999.5
2018-05-10T09:06:25.747Z,999.5
2018-05-10T09:07:27.885Z,999.5
2018-05-10T09:08:30.117Z,999.5
2018-05-10T09:09:32.139Z,999.5
2018-05-10T09:10:34.147Z,999.5
2018-05-10T09:11:36.161Z,999.5
2018-05-10T09:12:38.172Z,999.5
2018-05-10T09:13:40.193Z,999.5
2018-05-10T09:14:42.503Z,999.5
2018-05-10T09:15:44.756Z,999.5
2018-05-10T09:16:47.599Z,999.5
2018-05-10T09:17:49.601Z,999.5
2018-05-10T09:18:51.609Z,999.5
2018-05-10T09:19:53.908Z,999.5
2018-05-10T09:20:55.924Z,999.5
2018-05-10T09:21:58.209Z,999.4
2018-05-10T09:23:00.216Z,999.5
2018-05-10T09:24:02.230Z,999.5
2018-05-10T09:25:04.244Z,999.4
2018-05-10T09:26:06.271Z,999.3
2018-05-10T09:27:08.259Z,999.4
2018-05-10T09:28:10.286Z,999.4
2018-05-10T09:29:12.285Z,999.3
2018-05-10T09:30:14.300Z,999.3
2018-05-10T09:31:16.313Z,999.3
2018-05-10T09:32:18.328Z,999.3
2018-05-10T09:33:21.002Z,999.3
2018-05-10T09:34:23.009Z,999.3
2018-05-10T09:35:25.017Z,999.3
2018-05-10T09:36:27.477Z,999.3
2018-05-10T09:37:29.767Z,999.4
2018-05-10T09:38:31.780Z,999.3
2018-05-10T09:39:34.137Z,999.3
2018-05-10T09:40:36.564Z,999.3
2018-05-10T09:41:38.587Z,999.3
2018-05-10T09:42:40.588Z,999.4
2018-05-10T09:43:42.620Z,999.4
2018-05-10T09:44:44.708Z,999.3
2018-05-10T09:45:46.708Z,999.3
2018-05-10T09:46:48.729Z,999.3
2018-05-10T09:47:51.032Z,999.3
2018-05-10T09:48:53.065Z,999.3
2018-05-10T09:49:55.359Z,999.4
2018-05-10T09:50:57.656Z,999.3
2018-05-10T09:51:59.668Z,999.3
2018-05-10T09:53:02.063Z,999.5
2018-05-10T09:54:04.084Z,999.4
2018-05-10T09:55:06.383Z,999.4
2018-05-10T09:56:08.398Z,999.4
2018-05-10T09:57:10.697Z,999.4
2018-05-10T09:58:13.095Z,999.4
2018-05-10T09:59:15.110Z,999.4
2018-05-10T10:00:17.518Z,999.4
2018-05-10T10:01:20.131Z,999.4
2018-05-10T10:02:22.526Z,999.4
2018-05-10T10:03:24.536Z,999.4
2018-05-10T10:04:26.560Z,999.4
2018-05-10T10:05:28.957Z,999.5
2018-05-10T10:06:30.971Z,999.4
2018-05-10T10:07:32.994Z,999.4
2018-05-10T10:08:35.023Z,999.3
2018-05-10T10:09:37.017Z,999.4
2018-05-10T10:10:39.049Z,999.4
2018-05-10T10:11:41.154Z,999.4
2018-05-10T10:12:43.077Z,999.4
2018-05-10T10:13:45.087Z,999.4
2018-05-10T10:14:47.106Z,999.4
2018-05-10T10:15:49.152Z,999.4
2018-05-10T10:16:51.130Z,999.5
2018-05-10T10:17:53.148Z,999.4
2018-05-10T10:18:55.170Z,999.4
2018-05-10T10:19:57.182Z,999.4
2018-05-10T10:20:59.196Z,999.5
2018-05-10T10:22:01.497Z,999.4
2018-05-10T10:23:03.499Z,999.5
2018-05-10T10:24:05.526Z,999.5
2018-05-10T10:25:07.594Z,999.4
2018-05-10T10:26:10.193Z,999.5
2018-05-10T10:27:12.883Z,999.4
2018-05-10T10:28:14.893Z,999.5
2018-05-10T10:29:16.917Z,999.5
2018-05-10T10:30:19.219Z,999.5
2018-05-10T10:31:21.238Z,999.4
2018-05-10T10:32:23.328Z,999.4
2018-05-10T10:33:25.669Z,999.5
2018-05-10T10:34:27.688Z,999.4
2018-05-10T10:35:29.705Z,999.4
2018-05-10T10:36:31.722Z,999.5
2018-05-10T10:37:34.297Z,999.5
2018-05-10T10:38:36.603Z,999.4
2018-05-10T10:39:38.626Z,999.4
2018-05-10T10:40:40.648Z,999.5
2018-05-10T10:41:42.940Z,999.4
2018-05-10T10:42:44.953Z,999.5
2018-05-10T10:43:46.972Z,999.4
2018-05-10T10:44:49.360Z,999.5
2018-05-10T10:45:51.778Z,999.4
2018-05-10T10:46:54.461Z,999.4
2018-05-10T10:47:56.472Z,999.5
2018-05-10T10:48:58.778Z,999.4
2018-05-10T10:50:00.786Z,999.5
2018-05-10T10:51:03.397Z,999.5
2018-05-10T10:52:05.416Z,999.5
2018-05-10T10:53:07.431Z,999.5
2018-05-10T10:54:09.448Z,999.5
2018-05-10T10:55:11.472Z,999.5
2018-05-10T10:56:13.495Z,999.5
2018-05-10T10:57:15.499Z,999.5
2018-05-10T10:58:17.514Z,999.4
2018-05-10T10:59:19.533Z,999.5
2018-05-10T11:00:21.545Z,999.5
2018-05-10T11:01:23.564Z,999.6
2018-05-10T11:02:25.582Z,999.5
2018-05-10T11:03:27.600Z,999.5
2018-05-10T11:04:29.608Z,999.5
2018-05-10T11:05:31.622Z,999.6
2018-05-10T11:06:33.649Z,999.5
2018-05-10T11:07:35.669Z,999.5
2018-05-10T11:08:37.680Z,999.5
2018-05-10T11:09:39.977Z,999.5
2018-05-10T11:10:42.271Z,999.5
2018-05-10T11:11:44.289Z,999.4
2018-05-10T11:12:46.313Z,999.5
2018-05-10T11:13:48.599Z,999.4
2018-05-10T11:14:50.622Z,999.4
2018-05-10T11:15:52.648Z,999.4
2018-05-10T11:16:54.656Z,999.4
2018-05-10T11:17:56.979Z,999.4
2018-05-10T11:18:58.997Z,999.5
2018-05-10T11:20:01.011Z,999.5
2018-05-10T11:21:03.038Z,999.4
2018-05-10T11:22:05.044Z,999.5
2018-05-10T11:23:07.770Z,999.5
2018-05-10T11:24:09.782Z,999.5
2018-05-10T11:25:11.789Z,999.5
2018-05-10T11:26:13.811Z,999.4
2018-05-10T11:27:15.876Z,999.4
2018-05-10T11:28:17.849Z,999.4
2018-05-10T11:29:20.260Z,999.5
2018-05-10T11:30:22.267Z,999.4
2018-05-10T11:31:24.304Z,999.5
2018-05-10T11:32:26.591Z,999.5
2018-05-10T11:33:28.609Z,999.6
2018-05-10T11:34:30.636Z,999.5
2018-05-10T11:35:32.654Z,999.5
2018-05-10T11:36:34.678Z,999.5
2018-05-10T11:37:36.703Z,999.5
2018-05-10T11:38:39.002Z,999.4
2018-05-10T11:39:41.032Z,999.5
2018-05-10T11:40:43.127Z,999.5
2018-05-10T11:41:45.112Z,999.5
2018-05-10T11:42:47.132Z,999.5
2018-05-10T11:43:49.142Z,999.5
2018-05-10T11:44:51.519Z,999.4
2018-05-10T11:45:53.685Z,999.5
2018-05-10T11:46:56.293Z,999.4
2018-05-10T11:47:58.762Z,999.4
2018-05-10T11:49:00.781Z,999.5
2018-05-10T11:50:02.827Z,999.4
2018-05-10T11:51:04.991Z,999.4
2018-05-10T11:52:07.299Z,999.4
2018-05-10T11:53:09.394Z,999.4
2018-05-10T11:54:11.681Z,999.4
2018-05-10T11:55:14.030Z,999.4
2018-05-10T11:56:16.048Z,999.4
2018-05-10T11:57:18.149Z,999.4
2018-05-10T11:58:20.301Z,999.4
2018-05-10T11:59:22.712Z,999.4
2018-05-10T12:00:24.819Z,999.4
2018-05-10T12:01:27.175Z,999.3
2018-05-10T12:02:29.415Z,999.4
2018-05-10T12:03:31.435Z,999.3
2018-05-10T12:04:33.519Z,999.3
2018-05-10T12:05:35.658Z,999.3
2018-05-10T12:06:37.687Z,999.3
2018-05-10T12:07:39.792Z,999.3
2018-05-10T12:08:41.817Z,999.3
2018-05-10T12:09:43.883Z,999.3
2018-05-10T12:10:46.050Z,999.3
2018-05-10T12:11:48.071Z,999.3
2018-05-10T12:12:50.160Z,999.3
2018-05-10T12:13:52.432Z,999.4
2018-05-10T12:14:54.460Z,999.4
2018-05-10T12:15:56.809Z,999.4
2018-05-10T12:16:58.826Z,999.4
2018-05-10T12:18:00.995Z,999.3
2018-05-10T12:19:03.453Z,999.3
2018-05-10T12:20:06.282Z,999.3
2018-05-10T12:21:10.035Z,999.3
2018-05-10T12:22:12.278Z,999.4
2018-05-10T12:23:14.433Z,999.4
2018-05-10T12:24:16.474Z,999.3
2018-05-10T12:25:18.562Z,999.4
2018-05-10T12:26:20.622Z,999.3
2018-05-10T12:27:22.716Z,999.3
2018-05-10T12:28:24.732Z,999.4
2018-05-10T12:29:26.780Z,999.3
2018-05-10T12:30:28.827Z,999.4
2018-05-10T12:31:31.257Z,999.2
2018-05-10T12:32:33.276Z,999.3
2018-05-10T12:33:35.367Z,999.3
2018-05-10T12:34:37.485Z,999.2
2018-05-10T12:35:40.139Z,999.2
2018-05-10T12:36:42.210Z,999.2
2018-05-10T12:37:44.220Z,999.2
2018-05-10T12:38:46.239Z,999.2
2018-05-10T12:39:48.257Z,999.1
2018-05-10T12:40:50.275Z,999.2
2018-05-10T12:41:52.852Z,999.1
2018-05-10T12:42:54.864Z,999.2
2018-05-10T12:43:56.889Z,999.2
2018-05-10T12:44:58.909Z,999.2
2018-05-10T12:46:00.911Z,999.2
2018-05-10T12:47:02.929Z,999.2
2018-05-10T12:48:04.945Z,999.2
2018-05-10T12:49:07.247Z,999.2
2018-05-10T12:50:09.267Z,999.1
2018-05-10T12:51:11.284Z,999.1
2018-05-10T12:52:13.297Z,999.1
2018-05-10T12:53:15.697Z,999
2018-05-10T12:54:17.711Z,999
2018-05-10T12:55:19.735Z,999.1
2018-05-10T12:56:21.805Z,999
2018-05-10T12:57:23.769Z,998.9
2018-05-10T12:58:26.453Z,998.9
2018-05-10T12:59:28.750Z,998.9
2018-05-10T13:00:31.139Z,998.9
2018-05-10T13:01:33.158Z,999
2018-05-10T13:02:35.182Z,998.9
2018-05-10T13:03:37.581Z,998.9
2018-05-10T13:04:39.595Z,999
2018-05-10T13:05:41.612Z,999
2018-05-10T13:06:43.695Z,999
2018-05-10T13:07:45.640Z,999
2018-05-10T13:08:47.946Z,999
2018-05-10T13:09:49.987Z,999
2018-05-10T13:10:52.383Z,999
2018-05-10T13:11:54.798Z,999
2018-05-10T13:12:56.806Z,999
2018-05-10T13:13:58.834Z,998.9
2018-05-10T13:15:00.860Z,999
2018-05-10T13:16:03.258Z,999
2018-05-10T13:17:05.541Z,998.9
2018-05-10T13:18:07.560Z,998.8
2018-05-10T13:19:09.588Z,998.8
2018-05-10T13:20:11.604Z,998.8
2018-05-10T13:21:13.655Z,998.7
2018-05-10T13:22:15.982Z,998.7
2018-05-10T13:23:17.996Z,998.7
2018-05-10T13:24:20.177Z,998.7
2018-05-10T13:25:22.330Z,998.7
2018-05-10T13:26:24.353Z,998.7